createdAt,value
2023-10-05T00:02:22.669Z,13.36
2023-10-05T00:04:52.514Z,13.32
2023-10-05T00:07:28.521Z,13.32
2023-10-05T00:09:58.865Z,13.35
2023-10-05T00:12:26.950Z,13.36
2023-10-05T00:15:10.375Z,13.35
2023-10-05T00:17:41.220Z,13.35
2023-10-05T00:20:34.672Z,13.34
2023-10-05T00:23:06.839Z,13.33
2023-10-05T00:25:35.424Z,13.31
2023-10-05T00:28:07.424Z,13.28
2023-10-05T00:30:36.199Z,13.25
2023-10-05T00:33:08.793Z,13.28
2023-10-05T00:35:38.489Z,13.32
2023-10-05T00:38:17.467Z,13.33
2023-10-05T00:40:56.742Z,13.31
2023-10-05T00:43:26.958Z,13.30
2023-10-05T00:45:58.537Z,13.29
2023-10-05T00:48:42.345Z,13.29
2023-10-05T00:51:25.048Z,13.27
2023-10-05T00:53:54.466Z,13.24
2023-10-05T00:56:24.168Z,13.20
2023-10-05T00:59:05.952Z,13.23
2023-10-05T01:01:54.772Z,13.26
2023-10-05T01:04:41.747Z,13.26
2023-10-05T01:07:19.598Z,13.27
2023-10-05T01:09:53.169Z,13.30
2023-10-05T01:12:21.137Z,13.31
2023-10-05T01:14:54.695Z,13.32
2023-10-05T01:17:27.707Z,13.30
2023-10-05T01:19:58.409Z,13.29
2023-10-05T01:22:34.206Z,13.30
2023-10-05T01:25:04.081Z,13.31
2023-10-05T01:27:32.877Z,13.38
2023-10-05T01:30:01.201Z,13.45
2023-10-05T01:32:29.284Z,13.47
2023-10-05T01:34:56.929Z,13.50
2023-10-05T01:37:27.242Z,13.47
2023-10-05T01:39:55.046Z,13.43
2023-10-05T01:42:22.581Z,13.39
2023-10-05T01:44:50.749Z,13.34
2023-10-05T01:47:18.824Z,13.28
2023-10-05T01:49:52.837Z,13.21
2023-10-05T01:52:22.436Z,13.18
2023-10-05T01:54:50.173Z,13.17
2023-10-05T01:57:18.140Z,13.16
2023-10-05T01:59:45.948Z,13.13
2023-10-05T02:02:17.241Z,13.07
2023-10-05T02:04:46.014Z,13.01
2023-10-05T02:07:16.216Z,12.95
2023-10-05T02:09:44.064Z,12.89
2023-10-05T02:12:11.837Z,12.85
2023-10-05T02:14:42.788Z,12.87
2023-10-05T02:17:11.037Z,12.88
2023-10-05T02:19:42.795Z,12.86
2023-10-05T02:22:13.032Z,12.83
2023-10-05T02:24:43.474Z,12.79
2023-10-05T02:27:13.059Z,12.76
2023-10-05T02:29:41.846Z,12.71
2023-10-05T02:32:13.142Z,12.66
2023-10-05T02:34:46.316Z,12.65
2023-10-05T02:37:14.818Z,12.68
2023-10-05T02:39:42.873Z,12.68
2023-10-05T02:42:13.704Z,12.66
2023-10-05T02:44:44.647Z,12.64
2023-10-05T02:47:17.446Z,12.61
2023-10-05T02:49:45.523Z,12.57
2023-10-05T02:52:18.070Z,12.53
2023-10-05T02:54:49.999Z,12.53
2023-10-05T02:57:18.489Z,12.56
2023-10-05T02:59:46.445Z,12.56
2023-10-05T03:02:18.474Z,12.55
2023-10-05T03:04:46.816Z,12.55
2023-10-05T03:07:21.090Z,12.53
2023-10-05T03:09:53.257Z,12.64
2023-10-05T03:12:22.357Z,12.51
2023-10-05T03:14:52.737Z,12.44
2023-10-05T03:17:21.500Z,12.45
2023-10-05T03:19:52.044Z,12.44
2023-10-05T03:22:19.930Z,12.40
2023-10-05T03:24:49.097Z,12.34
2023-10-05T03:27:17.868Z,12.28
2023-10-05T03:29:48.291Z,12.23
2023-10-05T03:32:20.557Z,12.16
2023-10-05T03:34:57.299Z,12.14
2023-10-05T03:37:26.126Z,12.14
2023-10-05T03:40:08.503Z,12.13
2023-10-05T03:42:36.345Z,12.09
2023-10-05T03:45:11.363Z,12.04
2023-10-05T03:47:39.601Z,11.99
2023-10-05T03:50:09.900Z,11.94
2023-10-05T03:52:37.603Z,11.90
2023-10-05T03:55:07.126Z,11.90
2023-10-05T03:57:34.567Z,11.93
2023-10-05T04:00:17.593Z,11.96
2023-10-05T04:02:48.135Z,11.99
2023-10-05T04:05:19.824Z,11.99
2023-10-05T04:07:53.178Z,11.99
2023-10-05T04:10:39.474Z,11.98
2023-10-05T04:13:07.368Z,11.96
2023-10-05T04:15:35.001Z,11.95
2023-10-05T04:18:02.712Z,12.00
2023-10-05T04:20:30.450Z,12.05
2023-10-05T04:22:58.139Z,12.07
2023-10-05T04:25:25.904Z,12.07
2023-10-05T04:27:54.346Z,12.03
2023-10-05T04:30:23.071Z,12.00
2023-10-05T04:32:50.987Z,11.99
2023-10-05T04:35:28.385Z,12.01
2023-10-05T04:37:56.316Z,12.05
2023-10-05T04:40:27.178Z,12.10
2023-10-05T04:43:00.480Z,12.15
2023-10-05T04:45:29.610Z,12.16
2023-10-05T04:48:00.919Z,12.15
2023-10-05T04:50:28.882Z,12.13
2023-10-05T04:52:56.459Z,12.07
2023-10-05T04:55:33.808Z,12.02
2023-10-05T04:58:20.537Z,11.98
2023-10-05T05:00:48.237Z,12.04
2023-10-05T05:03:34.298Z,12.10
2023-10-05T05:06:08.122Z,12.16
2023-10-05T05:08:40.394Z,12.20
2023-10-05T05:11:13.437Z,12.21
2023-10-05T05:13:41.106Z,12.18
2023-10-05T05:16:09.538Z,12.14
2023-10-05T05:18:40.182Z,12.13
2023-10-05T05:21:08.943Z,12.21
2023-10-05T05:23:37.020Z,12.29
2023-10-05T05:26:10.936Z,12.37
2023-10-05T05:28:39.089Z,12.46
2023-10-05T05:31:15.927Z,12.49
2023-10-05T05:33:45.809Z,12.47
2023-10-05T05:36:14.519Z,12.44
2023-10-05T05:38:42.458Z,12.42
2023-10-05T05:45:17.487Z,12.52
2023-10-05T05:47:49.863Z,12.71
2023-10-05T05:50:19.902Z,12.75
2023-10-05T05:52:49.774Z,12.74
2023-10-05T05:55:24.839Z,12.75
2023-10-05T05:57:55.383Z,12.82
2023-10-05T06:00:26.687Z,12.92
2023-10-05T06:02:58.663Z,12.99
2023-10-05T06:05:29.247Z,13.06
2023-10-05T06:07:59.396Z,13.13
2023-10-05T06:10:51.242Z,13.18
2023-10-05T06:13:51.870Z,13.25
2023-10-05T06:16:22.647Z,13.40
2023-10-05T06:18:57.057Z,13.53
2023-10-05T06:21:27.374Z,13.65
2023-10-05T06:24:04.843Z,13.71
2023-10-05T06:26:35.113Z,13.75
2023-10-05T06:29:08.067Z,13.80
2023-10-05T06:31:46.173Z,13.86
2023-10-05T06:34:24.735Z,13.98
2023-10-05T06:36:54.036Z,14.11
2023-10-05T06:39:27.517Z,14.21
2023-10-05T06:41:55.841Z,14.28
2023-10-05T06:44:24.978Z,14.33
2023-10-05T06:46:54.805Z,14.36
2023-10-05T06:49:24.220Z,14.36
2023-10-05T06:51:51.957Z,14.37
2023-10-05T06:54:19.927Z,14.38
2023-10-05T06:56:51.171Z,14.48
2023-10-05T06:59:22.635Z,14.57
2023-10-05T07:01:50.714Z,14.64
2023-10-05T07:04:22.553Z,14.69
2023-10-05T07:06:51.659Z,14.77
2023-10-05T07:09:19.216Z,14.81
2023-10-05T07:11:46.983Z,14.87
2023-10-05T07:14:15.374Z,14.95
2023-10-05T07:16:42.992Z,15.06
2023-10-05T07:19:10.800Z,15.14
2023-10-05T07:21:39.777Z,15.22
2023-10-05T07:24:08.783Z,15.27
2023-10-05T07:26:36.370Z,15.30
2023-10-05T07:29:15.904Z,15.31
2023-10-05T07:31:52.078Z,15.33
2023-10-05T07:34:19.858Z,15.37
2023-10-05T07:36:47.471Z,15.43
2023-10-05T07:39:16.358Z,15.47
2023-10-05T07:41:45.556Z,15.50
2023-10-05T07:44:13.485Z,15.54
2023-10-05T07:46:44.500Z,15.61
2023-10-05T07:49:12.340Z,15.66
2023-10-05T07:51:40.045Z,15.71
2023-10-05T07:54:08.490Z,15.80
2023-10-05T07:56:37.062Z,15.91
2023-10-05T07:59:05.580Z,16.00
2023-10-05T08:01:33.580Z,16.07
2023-10-05T08:04:01.385Z,16.16
2023-10-05T08:06:29.140Z,16.23
2023-10-05T08:08:56.699Z,16.30
2023-10-05T08:11:24.569Z,16.37
2023-10-05T08:13:53.604Z,16.46
2023-10-05T08:16:21.339Z,16.55
2023-10-05T08:18:51.140Z,16.65
2023-10-05T08:21:18.597Z,16.71
2023-10-05T08:23:46.261Z,16.74
2023-10-05T08:26:14.544Z,16.76
2023-10-05T08:28:42.218Z,16.79
2023-10-05T08:31:10.832Z,16.84
2023-10-05T08:33:41.487Z,16.96
2023-10-05T08:36:13.420Z,17.09
2023-10-05T08:38:41.371Z,17.15
2023-10-05T08:41:13.123Z,17.19
2023-10-05T08:43:41.121Z,17.25
2023-10-05T08:46:16.243Z,17.30
2023-10-05T08:48:43.799Z,17.32
2023-10-05T08:51:14.517Z,17.36
2023-10-05T08:53:45.795Z,17.42
2023-10-05T08:56:17.097Z,17.49
2023-10-05T08:58:50.107Z,17.58
2023-10-05T09:01:36.549Z,17.65
2023-10-05T09:04:11.285Z,17.71
2023-10-05T09:06:49.535Z,17.74
2023-10-05T09:09:20.989Z,17.73
2023-10-05T09:11:48.546Z,17.75
2023-10-05T09:14:19.576Z,17.81
2023-10-05T09:16:59.765Z,17.86
2023-10-05T09:19:28.431Z,17.95
2023-10-05T09:22:02.201Z,18.03
2023-10-05T09:24:32.152Z,18.10
2023-10-05T09:27:18.676Z,18.18
2023-10-05T09:29:47.145Z,18.29
2023-10-05T09:32:27.125Z,18.34
2023-10-05T09:34:58.164Z,18.38
2023-10-05T09:37:28.825Z,18.41
2023-10-05T09:40:01.111Z,18.41
2023-10-05T09:42:29.112Z,18.40
2023-10-05T09:45:00.534Z,18.39
2023-10-05T09:47:34.787Z,18.40
2023-10-05T09:50:11.186Z,18.39
2023-10-05T09:52:44.629Z,18.42
2023-10-05T09:55:15.195Z,18.47
2023-10-05T09:57:52.900Z,18.51
2023-10-05T10:00:27.510Z,18.53
2023-10-05T10:02:59.939Z,18.55
2023-10-05T10:05:36.674Z,18.56
2023-10-05T10:08:14.927Z,18.55
2023-10-05T10:10:53.386Z,18.56
2023-10-05T10:13:24.502Z,18.61
2023-10-05T10:15:58.190Z,18.65
2023-10-05T10:18:38.729Z,18.67
2023-10-05T10:21:14.540Z,18.70
2023-10-05T10:23:46.288Z,18.74
2023-10-05T10:26:22.351Z,18.77
2023-10-05T10:28:58.995Z,18.84
2023-10-05T10:31:44.862Z,18.91
2023-10-05T10:34:21.170Z,18.97
2023-10-05T10:36:53.752Z,18.99
2023-10-05T10:39:24.985Z,19.01
2023-10-05T10:42:02.591Z,19.02
2023-10-05T10:44:30.256Z,19.03
2023-10-05T10:47:12.420Z,19.05
2023-10-05T10:49:41.655Z,19.11
2023-10-05T10:52:16.905Z,19.20
2023-10-05T10:54:48.247Z,19.29
2023-10-05T10:57:23.962Z,19.37
2023-10-05T11:00:14.586Z,19.50
2023-10-05T11:02:42.496Z,19.63
2023-10-05T11:05:18.518Z,19.72
2023-10-05T11:07:46.444Z,19.76
2023-10-05T11:10:20.621Z,19.74
2023-10-05T11:12:55.611Z,19.68
2023-10-05T11:15:29.961Z,19.71
2023-10-05T11:18:01.382Z,19.77
2023-10-05T11:20:35.149Z,19.79
2023-10-05T11:23:10.365Z,19.80
2023-10-05T11:25:48.518Z,19.84
2023-10-05T11:28:26.744Z,19.89
2023-10-05T11:31:04.338Z,19.94
2023-10-05T11:34:07.649Z,20.02
2023-10-05T11:36:30.671Z,20.09
2023-10-05T11:39:01.692Z,20.15
2023-10-05T11:41:33.834Z,20.19
2023-10-05T11:44:01.852Z,20.23
2023-10-05T11:46:48.224Z,20.26
2023-10-05T11:49:16.097Z,20.27
2023-10-05T11:51:44.152Z,20.29
2023-10-05T11:54:12.837Z,20.36
2023-10-05T11:56:42.003Z,20.39
2023-10-05T11:59:12.691Z,20.41
2023-10-05T12:01:44.521Z,20.40
2023-10-05T12:04:12.713Z,20.35
2023-10-05T12:06:41.104Z,20.30
2023-10-05T12:09:09.100Z,20.30
2023-10-05T12:11:40.045Z,20.31
2023-10-05T12:14:07.646Z,20.32
2023-10-05T12:16:36.331Z,20.37
2023-10-05T12:19:15.239Z,20.45
2023-10-05T12:21:44.676Z,20.56
2023-10-05T12:24:13.085Z,20.64
2023-10-05T12:26:41.158Z,20.71
2023-10-05T12:29:13.794Z,20.74
2023-10-05T12:31:42.257Z,20.66
2023-10-05T12:34:25.462Z,20.62
2023-10-05T12:36:55.929Z,20.59
2023-10-05T12:39:29.216Z,20.57
2023-10-05T12:41:57.705Z,20.57
2023-10-05T12:44:25.481Z,20.62
2023-10-05T12:46:53.150Z,20.71
2023-10-05T12:49:21.910Z,20.90
2023-10-05T12:51:51.585Z,21.71
2023-10-05T12:54:29.925Z,22.97
2023-10-05T12:57:13.645Z,24.25
2023-10-05T12:59:45.871Z,25.51
2023-10-05T13:02:20.450Z,26.47
2023-10-05T13:04:48.902Z,27.16
2023-10-05T13:07:21.340Z,27.51
2023-10-05T13:10:00.990Z,27.84
2023-10-05T13:12:30.690Z,28.25
2023-10-05T13:14:58.247Z,28.56
2023-10-05T13:17:26.629Z,28.93
2023-10-05T13:19:54.188Z,29.31
2023-10-05T13:22:22.637Z,29.71
2023-10-05T13:24:56.723Z,29.99
2023-10-05T13:27:26.032Z,30.25
2023-10-05T13:29:55.711Z,30.23
2023-10-05T13:32:24.267Z,30.30
2023-10-05T13:34:52.046Z,30.40
2023-10-05T13:37:21.329Z,30.34
2023-10-05T13:39:49.318Z,30.19
2023-10-05T13:42:27.116Z,29.99
2023-10-05T13:44:56.110Z,29.82
2023-10-05T13:47:28.537Z,29.68
2023-10-05T13:50:09.205Z,29.29
2023-10-05T13:52:40.317Z,28.88
2023-10-05T13:55:09.339Z,28.54
2023-10-05T13:57:38.276Z,28.16
2023-10-05T14:00:19.203Z,27.65
2023-10-05T14:02:51.220Z,27.07
2023-10-05T14:05:22.204Z,26.74
2023-10-05T14:07:52.671Z,26.53
2023-10-05T14:10:22.485Z,26.36
2023-10-05T14:12:50.669Z,26.30
2023-10-05T14:15:22.003Z,26.17
2023-10-05T14:17:52.604Z,26.00
2023-10-05T14:20:20.342Z,25.79
2023-10-05T14:22:48.236Z,25.48
2023-10-05T14:25:19.407Z,25.06
2023-10-05T14:27:48.799Z,24.59
2023-10-05T14:30:21.590Z,24.12
2023-10-05T14:32:52.253Z,23.70
2023-10-05T14:35:20.771Z,23.41
2023-10-05T14:37:51.357Z,23.17
2023-10-05T14:40:26.440Z,22.95
2023-10-05T14:42:54.489Z,22.73
2023-10-05T14:45:23.017Z,22.49
2023-10-05T14:47:50.735Z,22.23
2023-10-05T14:50:19.199Z,21.95
2023-10-05T14:52:53.530Z,21.80
2023-10-05T14:55:21.776Z,21.77
2023-10-05T14:57:49.460Z,21.74
2023-10-05T15:00:17.752Z,21.65
2023-10-05T15:02:45.804Z,21.59
2023-10-05T15:05:14.489Z,21.52
2023-10-05T15:07:42.929Z,21.42
2023-10-05T15:10:17.450Z,21.31
2023-10-05T15:12:45.877Z,21.20
2023-10-05T15:15:16.999Z,21.12
2023-10-05T15:17:46.131Z,21.00
2023-10-05T15:20:15.748Z,20.90
2023-10-05T15:22:46.241Z,20.77
2023-10-05T15:25:17.121Z,20.60
2023-10-05T15:27:44.754Z,20.44
2023-10-05T15:30:16.673Z,20.29
2023-10-05T15:32:50.693Z,20.14
2023-10-05T15:35:19.619Z,19.98
2023-10-05T15:37:48.498Z,19.83
2023-10-05T15:40:17.094Z,19.68
2023-10-05T15:42:46.461Z,19.59
2023-10-05T15:45:14.895Z,19.49
2023-10-05T15:47:45.357Z,19.38
2023-10-05T15:50:17.376Z,19.27
2023-10-05T15:52:59.068Z,19.16
2023-10-05T15:55:28.024Z,19.04
2023-10-05T15:57:56.540Z,18.94
2023-10-05T16:00:27.188Z,18.86
2023-10-05T16:02:59.305Z,18.78
2023-10-05T16:05:28.402Z,18.69
2023-10-05T16:08:01.001Z,18.58
2023-10-05T16:10:29.646Z,18.45
2023-10-05T16:12:57.768Z,18.30
2023-10-05T16:15:25.596Z,18.19
2023-10-05T16:17:53.830Z,18.05
2023-10-05T16:20:26.997Z,17.90
2023-10-05T16:22:59.631Z,17.77
2023-10-05T16:25:28.375Z,17.64
2023-10-05T16:27:56.137Z,17.53
2023-10-05T16:30:23.734Z,17.41
2023-10-05T16:32:52.679Z,17.26
2023-10-05T16:35:20.347Z,17.12
2023-10-05T16:37:49.862Z,16.97
2023-10-05T16:40:20.918Z,16.84
2023-10-05T16:42:49.786Z,16.79
2023-10-05T16:45:21.285Z,16.78
2023-10-05T16:47:51.171Z,16.77
2023-10-05T16:50:20.361Z,16.74
2023-10-05T16:52:49.429Z,16.68
2023-10-05T16:55:21.387Z,16.60
2023-10-05T16:57:51.717Z,16.51
2023-10-05T17:00:28.798Z,16.46
2023-10-05T17:02:57.082Z,16.39
2023-10-05T17:05:29.946Z,16.32
2023-10-05T17:08:00.725Z,16.29
2023-10-05T17:10:28.581Z,16.24
2023-10-05T17:12:56.554Z,16.23
2023-10-05T17:15:30.061Z,16.23
2023-10-05T17:17:57.880Z,16.22
2023-10-05T17:20:25.684Z,16.22
2023-10-05T17:22:56.294Z,16.22
2023-10-05T17:25:24.977Z,16.21
2023-10-05T17:27:52.760Z,16.19
2023-10-05T17:30:20.551Z,16.18
2023-10-05T17:32:48.839Z,16.16
2023-10-05T17:35:25.898Z,16.14
2023-10-05T17:37:54.331Z,16.14
2023-10-05T17:40:22.540Z,16.13
2023-10-05T17:42:50.544Z,16.10
2023-10-05T17:45:18.291Z,16.09
2023-10-05T17:47:46.761Z,16.06
2023-10-05T17:50:16.342Z,16.02
2023-10-05T17:52:47.794Z,15.99
2023-10-05T17:55:15.868Z,15.94
2023-10-05T17:57:43.622Z,15.90
2023-10-05T18:03:08.089Z,15.70
2023-10-05T18:05:39.533Z,15.85
2023-10-05T18:08:08.066Z,15.80
2023-10-05T18:10:41.441Z,15.74
2023-10-05T18:13:08.976Z,15.70
2023-10-05T18:15:36.483Z,15.66
2023-10-05T18:18:08.787Z,15.63
2023-10-05T18:20:36.667Z,15.60
2023-10-05T18:23:07.110Z,15.58
2023-10-05T18:25:35.828Z,15.56
2023-10-05T18:28:06.444Z,15.55
2023-10-05T18:30:36.213Z,15.55
2023-10-05T18:33:07.706Z,15.56
2023-10-05T18:35:37.581Z,15.56
2023-10-05T18:38:08.738Z,15.55
2023-10-05T18:40:36.607Z,15.53
2023-10-05T18:43:07.194Z,15.51
2023-10-05T18:45:35.474Z,15.47
2023-10-05T18:48:03.707Z,15.43
2023-10-05T18:50:31.385Z,15.38
2023-10-05T18:52:59.170Z,15.34
2023-10-05T18:55:26.835Z,15.31
2023-10-05T18:57:54.529Z,15.30
2023-10-05T19:00:22.404Z,15.30
2023-10-05T19:02:50.530Z,15.31
2023-10-05T19:05:18.546Z,15.33
2023-10-05T19:07:47.972Z,15.34
2023-10-05T19:10:18.580Z,15.33
2023-10-05T19:12:47.774Z,15.33
2023-10-05T19:15:15.388Z,15.34
2023-10-05T19:17:43.061Z,15.35
2023-10-05T19:20:10.981Z,15.36
2023-10-05T19:22:38.678Z,15.38
2023-10-05T19:25:08.039Z,15.40
2023-10-05T19:27:37.275Z,15.41
2023-10-05T19:30:06.124Z,15.42
2023-10-05T19:32:34.831Z,15.43
2023-10-05T19:35:03.092Z,15.44
2023-10-05T19:37:30.730Z,15.45
2023-10-05T19:39:58.411Z,15.46
2023-10-05T19:42:25.973Z,15.48
2023-10-05T19:44:53.535Z,15.49
2023-10-05T19:47:21.404Z,15.49
2023-10-05T19:49:51.640Z,15.49
2023-10-05T19:52:19.402Z,15.50
2023-10-05T19:54:46.950Z,15.51
2023-10-05T19:57:14.923Z,15.52
2023-10-05T19:59:46.680Z,15.53
2023-10-05T20:02:15.475Z,15.55
2023-10-05T20:04:43.152Z,15.55
2023-10-05T20:07:11.725Z,15.56
2023-10-05T20:09:42.345Z,15.57
2023-10-05T20:12:09.857Z,15.57
2023-10-05T20:14:37.408Z,15.58
2023-10-05T20:17:09.350Z,15.60
2023-10-05T20:19:36.993Z,15.61
2023-10-05T20:22:04.955Z,15.62
2023-10-05T20:24:32.823Z,15.62
2023-10-05T20:27:00.414Z,15.63
2023-10-05T20:29:31.827Z,15.62
2023-10-05T20:31:59.428Z,15.62
2023-10-05T20:34:28.311Z,15.63
2023-10-05T20:36:56.057Z,15.63
2023-10-05T20:39:24.342Z,15.62
2023-10-05T20:41:55.641Z,15.63
2023-10-05T20:44:24.161Z,15.65
2023-10-05T20:46:51.903Z,15.65
2023-10-05T20:49:19.584Z,15.64
2023-10-05T20:51:47.254Z,15.63
2023-10-05T20:54:14.803Z,15.62
2023-10-05T20:56:44.720Z,15.62
2023-10-05T20:59:13.711Z,15.61
2023-10-05T21:01:41.346Z,15.60
2023-10-05T21:04:09.340Z,15.58
2023-10-05T21:06:37.523Z,15.56
2023-10-05T21:09:05.557Z,15.55
2023-10-05T21:11:34.580Z,15.56
2023-10-05T21:14:02.372Z,15.56
2023-10-05T21:16:30.300Z,15.55
2023-10-05T21:18:57.985Z,15.54
2023-10-05T21:21:26.286Z,15.54
2023-10-05T21:23:53.926Z,15.54
2023-10-05T21:26:22.007Z,15.53
2023-10-05T21:28:49.549Z,15.52
2023-10-05T21:31:17.076Z,15.51
2023-10-05T21:33:44.570Z,15.50
2023-10-05T21:36:13.736Z,15.50
2023-10-05T21:38:41.550Z,15.50
2023-10-05T21:41:09.356Z,15.49
2023-10-05T21:43:37.011Z,15.51
2023-10-05T21:46:04.559Z,15.51
2023-10-05T21:48:32.619Z,15.53
2023-10-05T21:51:00.268Z,15.54
2023-10-05T21:53:28.229Z,15.54
2023-10-05T21:55:55.910Z,15.54
2023-10-05T21:58:24.607Z,15.53
2023-10-05T22:00:54.399Z,15.53
2023-10-05T22:03:22.897Z,15.52
2023-10-05T22:05:50.641Z,15.52
2023-10-05T22:08:18.297Z,15.50
2023-10-05T22:10:45.928Z,15.48
2023-10-05T22:13:14.049Z,15.45
2023-10-05T22:15:41.806Z,15.43
2023-10-05T22:18:11.785Z,15.41
2023-10-05T22:20:40.316Z,15.40
2023-10-05T22:23:08.989Z,15.38
2023-10-05T22:25:40.823Z,15.38
2023-10-05T22:28:09.147Z,15.38
2023-10-05T22:30:38.935Z,15.38
2023-10-05T22:33:09.877Z,15.37
2023-10-05T22:35:39.069Z,15.36
2023-10-05T22:38:06.966Z,15.34
2023-10-05T22:40:36.673Z,15.33
2023-10-05T22:43:04.522Z,15.31
2023-10-05T22:45:33.898Z,15.30
2023-10-05T22:48:01.511Z,15.29
2023-10-05T22:50:29.142Z,15.28
2023-10-05T22:52:57.512Z,15.28
2023-10-05T22:55:26.147Z,15.27
2023-10-05T22:57:55.717Z,15.25
2023-10-05T23:00:23.403Z,15.22
2023-10-05T23:02:51.146Z,15.19
2023-10-05T23:05:21.777Z,15.15
2023-10-05T23:07:49.371Z,15.12
2023-10-05T23:10:16.777Z,15.11
2023-10-05T23:12:44.354Z,15.11
2023-10-05T23:15:11.915Z,15.09
2023-10-05T23:17:40.418Z,15.08
2023-10-05T23:20:09.180Z,15.07
2023-10-05T23:22:39.167Z,15.05
2023-10-05T23:25:18.620Z,15.04
2023-10-05T23:27:47.948Z,15.04
2023-10-05T23:30:16.728Z,15.04
2023-10-05T23:32:48.000Z,15.03
2023-10-05T23:35:20.846Z,15.01
2023-10-05T23:37:53.099Z,15.02
2023-10-05T23:40:22.225Z,15.02
2023-10-05T23:42:49.810Z,15.03
2023-10-05T23:45:19.497Z,15.04
2023-10-05T23:47:49.585Z,15.06
2023-10-05T23:50:27.417Z,15.06
2023-10-05T23:52:58.152Z,15.07
2023-10-05T23:55:26.645Z,15.08
2023-10-05T23:57:54.720Z,15.10
